sensor_id;sensor_type;location;lat;lon;timestamp;temperature;humidity
43949;DHT22;29429;51.074;13.764;2022-07-04T00:01:44;20.10;99.90
43949;DHT22;29429;51.074;13.764;2022-07-04T00:04:11;20.00;99.90
43949;DHT22;29429;51.074;13.764;2022-07-04T00:06:38;19.90;99.90
43949;DHT22;29429;51.074;13.764;2022-07-04T00:09:05;20.00;99.90
43949;DHT22;29429;51.074;13.764;2022-07-04T00:11:32;19.90;99.90
43949;DHT22;29429;51.074;13.764;2022-07-04T00:13:59;19.90;99.90
43949;DHT22;29429;51.074;13.764;2022-07-04T00:16:26;20.00;99.90
43949;DHT22;29429;51.074;13.764;2022-07-04T00:18:53;20.00;99.90
43949;DHT22;29429;51.074;13.764;2022-07-04T00:21:20;19.90;99.90
43949;DHT22;29429;51.074;13.764;2022-07-04T00:23:47;19.80;99.90
43949;DHT22;29429;51.074;13.764;2022-07-04T00:26:15;19.70;99.90
43949;DHT22;29429;51.074;13.764;2022-07-04T00:28:42;19.80;99.90
43949;DHT22;29429;51.074;13.764;2022-07-04T00:31:09;19.70;99.90
43949;DHT22;29429;51.074;13.764;2022-07-04T00:33:36;19.70;99.90
43949;DHT22;29429;51.074;13.764;2022-07-04T00:36:03;19.70;99.90
43949;DHT22;29429;51.074;13.764;2022-07-04T00:38:31;19.70;99.90
43949;DHT22;29429;51.074;13.764;2022-07-04T00:40:59;19.60;99.90
43949;DHT22;29429;51.074;13.764;2022-07-04T00:43:27;19.50;99.90
43949;DHT22;29429;51.074;13.764;2022-07-04T00:45:55;19.60;99.90
43949;DHT22;29429;51.074;13.764;2022-07-04T00:48:22;19.70;99.90
43949;DHT22;29429;51.074;13.764;2022-07-04T00:50:49;19.50;99.90
43949;DHT22;29429;51.074;13.764;2022-07-04T00:53:19;19.50;99.90
43949;DHT22;29429;51.074;13.764;2022-07-04T00:55:50;19.50;99.90
43949;DHT22;29429;51.074;13.764;2022-07-04T00:58:23;19.40;99.90
43949;DHT22;29429;51.074;13.764;2022-07-04T01:00:50;19.40;99.90
43949;DHT22;29429;51.074;13.764;2022-07-04T01:03:17;19.50;99.90
43949;DHT22;29429;51.074;13.764;2022-07-04T01:05:45;19.40;99.90
43949;DHT22;29429;51.074;13.764;2022-07-04T01:08:12;19.40;99.90
43949;DHT22;29429;51.074;13.764;2022-07-04T01:10:40;19.50;99.90
43949;DHT22;29429;51.074;13.764;2022-07-04T01:13:07;19.50;99.90
43949;DHT22;29429;51.074;13.764;2022-07-04T01:15:34;19.60;99.90
43949;DHT22;29429;51.074;13.764;2022-07-04T01:18:01;19.50;99.90
43949;DHT22;29429;51.074;13.764;2022-07-04T01:20:34;19.70;99.90
43949;DHT22;29429;51.074;13.764;2022-07-04T01:23:02;19.70;99.90
43949;DHT22;29429;51.074;13.764;2022-07-04T01:25:30;19.80;99.90
43949;DHT22;29429;51.074;13.764;2022-07-04T01:27:59;19.70;99.90
43949;DHT22;29429;51.074;13.764;2022-07-04T01:30:27;19.70;99.90
43949;DHT22;29429;51.074;13.764;2022-07-04T01:32:55;19.70;99.90
43949;DHT22;29429;51.074;13.764;2022-07-04T01:35:23;19.70;99.90
43949;DHT22;29429;51.074;13.764;2022-07-04T01:37:50;19.60;99.90
43949;DHT22;29429;51.074;13.764;2022-07-04T01:40:18;19.70;99.90
43949;DHT22;29429;51.074;13.764;2022-07-04T01:42:45;19.60;99.90
43949;DHT22;29429;51.074;13.764;2022-07-04T01:45:12;19.70;99.90
43949;DHT22;29429;51.074;13.764;2022-07-04T01:47:40;19.60;99.90
43949;DHT22;29429;51.074;13.764;2022-07-04T01:50:09;19.60;99.90
43949;DHT22;29429;51.074;13.764;2022-07-04T01:52:40;19.60;99.90
43949;DHT22;29429;51.074;13.764;2022-07-04T01:55:10;19.60;99.90
43949;DHT22;29429;51.074;13.764;2022-07-04T01:57:37;19.60;99.90
43949;DHT22;29429;51.074;13.764;2022-07-04T02:00:07;19.50;99.90
43949;DHT22;29429;51.074;13.764;2022-07-04T02:02:56;19.50;99.90
43949;DHT22;29429;51.074;13.764;2022-07-04T02:05:23;19.50;99.90
43949;DHT22;29429;51.074;13.764;2022-07-04T02:07:51;19.50;99.90
43949;DHT22;29429;51.074;13.764;2022-07-04T02:10:18;19.20;99.90
43949;DHT22;29429;51.074;13.764;2022-07-04T02:12:45;19.40;99.90
43949;DHT22;29429;51.074;13.764;2022-07-04T02:15:37;19.30;99.90
43949;DHT22;29429;51.074;13.764;2022-07-04T02:18:05;19.30;99.90
43949;DHT22;29429;51.074;13.764;2022-07-04T02:20:35;19.20;99.90
43949;DHT22;29429;51.074;13.764;2022-07-04T02:23:04;19.20;99.90
43949;DHT22;29429;51.074;13.764;2022-07-04T02:25:32;19.10;99.90
43949;DHT22;29429;51.074;13.764;2022-07-04T02:27:59;18.90;99.90
43949;DHT22;29429;51.074;13.764;2022-07-04T02:30:26;19.20;99.90
43949;DHT22;29429;51.074;13.764;2022-07-04T02:32:53;19.00;99.90
43949;DHT22;29429;51.074;13.764;2022-07-04T02:35:20;19.00;99.90
43949;DHT22;29429;51.074;13.764;2022-07-04T02:37:47;19.00;99.90
43949;DHT22;29429;51.074;13.764;2022-07-04T02:40:14;18.90;99.90
43949;DHT22;29429;51.074;13.764;2022-07-04T02:42:41;18.90;99.90
43949;DHT22;29429;51.074;13.764;2022-07-04T02:45:08;18.80;99.90
43949;DHT22;29429;51.074;13.764;2022-07-04T02:47:35;18.80;99.90
43949;DHT22;29429;51.074;13.764;2022-07-04T02:50:03;18.80;99.90
43949;DHT22;29429;51.074;13.764;2022-07-04T02:52:31;18.80;99.90
43949;DHT22;29429;51.074;13.764;2022-07-04T02:54:57;18.70;99.90
43949;DHT22;29429;51.074;13.764;2022-07-04T02:57:25;18.70;99.90
43949;DHT22;29429;51.074;13.764;2022-07-04T02:59:51;18.70;99.90
43949;DHT22;29429;51.074;13.764;2022-07-04T03:02:19;18.70;99.90
43949;DHT22;29429;51.074;13.764;2022-07-04T03:04:45;18.70;99.90
43949;DHT22;29429;51.074;13.764;2022-07-04T03:07:13;18.70;99.90
43949;DHT22;29429;51.074;13.764;2022-07-04T03:09:40;18.50;99.90
43949;DHT22;29429;51.074;13.764;2022-07-04T03:12:07;18.60;99.90
43949;DHT22;29429;51.074;13.764;2022-07-04T03:14:34;18.50;99.90
43949;DHT22;29429;51.074;13.764;2022-07-04T03:17:01;18.40;99.90
43949;DHT22;29429;51.074;13.764;2022-07-04T03:19:29;18.60;99.90
43949;DHT22;29429;51.074;13.764;2022-07-04T03:21:55;18.60;99.90
43949;DHT22;29429;51.074;13.764;2022-07-04T03:24:22;18.60;99.90
43949;DHT22;29429;51.074;13.764;2022-07-04T03:26:49;18.50;99.90
43949;DHT22;29429;51.074;13.764;2022-07-04T03:29:16;18.60;99.90
43949;DHT22;29429;51.074;13.764;2022-07-04T03:31:43;18.50;99.90
43949;DHT22;29429;51.074;13.764;2022-07-04T03:34:10;18.60;99.90
43949;DHT22;29429;51.074;13.764;2022-07-04T03:36:37;18.60;99.90
43949;DHT22;29429;51.074;13.764;2022-07-04T03:39:04;18.70;99.90
43949;DHT22;29429;51.074;13.764;2022-07-04T03:41:31;18.60;99.90
43949;DHT22;29429;51.074;13.764;2022-07-04T03:43:58;18.60;99.90
43949;DHT22;29429;51.074;13.764;2022-07-04T03:46:25;18.60;99.90
43949;DHT22;29429;51.074;13.764;2022-07-04T03:48:52;18.70;99.90
43949;DHT22;29429;51.074;13.764;2022-07-04T03:51:20;18.70;99.90
43949;DHT22;29429;51.074;13.764;2022-07-04T03:53:47;18.70;99.90
43949;DHT22;29429;51.074;13.764;2022-07-04T03:56:14;18.70;99.90
43949;DHT22;29429;51.074;13.764;2022-07-04T03:58:41;18.90;99.90
43949;DHT22;29429;51.074;13.764;2022-07-04T04:01:18;18.70;99.90
43949;DHT22;29429;51.074;13.764;2022-07-04T04:03:45;18.70;99.90
43949;DHT22;29429;51.074;13.764;2022-07-04T04:06:31;18.70;99.90
43949;DHT22;29429;51.074;13.764;2022-07-04T04:08:58;18.80;99.90
43949;DHT22;29429;51.074;13.764;2022-07-04T04:11:25;18.90;99.90
43949;DHT22;29429;51.074;13.764;2022-07-04T04:13:52;18.90;99.90
43949;DHT22;29429;51.074;13.764;2022-07-04T04:16:19;18.90;99.90
43949;DHT22;29429;51.074;13.764;2022-07-04T04:18:46;19.00;99.90
43949;DHT22;29429;51.074;13.764;2022-07-04T04:21:12;18.90;99.90
43949;DHT22;29429;51.074;13.764;2022-07-04T04:23:39;18.90;99.90
43949;DHT22;29429;51.074;13.764;2022-07-04T04:26:06;18.90;99.90
43949;DHT22;29429;51.074;13.764;2022-07-04T04:28:33;18.90;99.90
43949;DHT22;29429;51.074;13.764;2022-07-04T04:31:00;19.00;99.90
43949;DHT22;29429;51.074;13.764;2022-07-04T04:33:27;19.00;99.90
43949;DHT22;29429;51.074;13.764;2022-07-04T04:35:54;19.00;99.90
43949;DHT22;29429;51.074;13.764;2022-07-04T04:38:21;19.00;99.90
43949;DHT22;29429;51.074;13.764;2022-07-04T04:40:48;19.10;99.90
43949;DHT22;29429;51.074;13.764;2022-07-04T04:43:15;19.10;99.90
43949;DHT22;29429;51.074;13.764;2022-07-04T04:45:42;19.00;99.90
43949;DHT22;29429;51.074;13.764;2022-07-04T04:48:09;19.10;99.90
43949;DHT22;29429;51.074;13.764;2022-07-04T04:50:36;19.10;99.90
43949;DHT22;29429;51.074;13.764;2022-07-04T04:53:03;19.10;99.90
43949;DHT22;29429;51.074;13.764;2022-07-04T04:55:30;19.20;99.90
43949;DHT22;29429;51.074;13.764;2022-07-04T04:57:57;19.30;99.90
43949;DHT22;29429;51.074;13.764;2022-07-04T05:00:24;19.40;99.90
43949;DHT22;29429;51.074;13.764;2022-07-04T05:02:51;19.50;99.90
43949;DHT22;29429;51.074;13.764;2022-07-04T05:05:18;19.60;99.90
43949;DHT22;29429;51.074;13.764;2022-07-04T05:07:46;19.50;99.90
43949;DHT22;29429;51.074;13.764;2022-07-04T05:10:13;19.50;99.90
43949;DHT22;29429;51.074;13.764;2022-07-04T05:12:42;19.40;99.90
43949;DHT22;29429;51.074;13.764;2022-07-04T05:15:10;19.40;99.90
43949;DHT22;29429;51.074;13.764;2022-07-04T05:17:37;19.40;99.90
43949;DHT22;29429;51.074;13.764;2022-07-04T05:20:04;19.30;99.90
43949;DHT22;29429;51.074;13.764;2022-07-04T05:22:32;19.30;99.90
43949;DHT22;29429;51.074;13.764;2022-07-04T05:24:59;19.20;99.90
43949;DHT22;29429;51.074;13.764;2022-07-04T05:27:26;19.20;99.90
43949;DHT22;29429;51.074;13.764;2022-07-04T05:29:53;19.30;99.90
43949;DHT22;29429;51.074;13.764;2022-07-04T05:32:21;19.30;99.90
43949;DHT22;29429;51.074;13.764;2022-07-04T05:34:48;19.30;99.90
43949;DHT22;29429;51.074;13.764;2022-07-04T05:37:15;19.30;99.90
43949;DHT22;29429;51.074;13.764;2022-07-04T05:39:42;19.40;99.90
43949;DHT22;29429;51.074;13.764;2022-07-04T05:42:08;19.40;99.90
43949;DHT22;29429;51.074;13.764;2022-07-04T05:44:35;19.50;99.90
43949;DHT22;29429;51.074;13.764;2022-07-04T05:47:03;19.50;99.90
43949;DHT22;29429;51.074;13.764;2022-07-04T05:49:29;19.50;99.90
43949;DHT22;29429;51.074;13.764;2022-07-04T05:51:56;19.50;99.90
43949;DHT22;29429;51.074;13.764;2022-07-04T05:54:23;19.60;99.90
43949;DHT22;29429;51.074;13.764;2022-07-04T05:56:50;19.60;99.90
43949;DHT22;29429;51.074;13.764;2022-07-04T05:59:17;19.70;99.90
43949;DHT22;29429;51.074;13.764;2022-07-04T06:01:44;19.80;99.90
43949;DHT22;29429;51.074;13.764;2022-07-04T06:04:12;19.90;99.90
43949;DHT22;29429;51.074;13.764;2022-07-04T06:06:39;19.90;99.90
43949;DHT22;29429;51.074;13.764;2022-07-04T06:09:06;20.00;99.90
43949;DHT22;29429;51.074;13.764;2022-07-04T06:11:32;20.10;99.90
43949;DHT22;29429;51.074;13.764;2022-07-04T06:14:01;20.00;99.90
43949;DHT22;29429;51.074;13.764;2022-07-04T06:16:28;20.10;99.90
43949;DHT22;29429;51.074;13.764;2022-07-04T06:18:55;20.20;99.90
43949;DHT22;29429;51.074;13.764;2022-07-04T06:21:22;20.30;99.90
43949;DHT22;29429;51.074;13.764;2022-07-04T06:23:49;20.40;99.90
43949;DHT22;29429;51.074;13.764;2022-07-04T06:26:16;20.50;99.90
43949;DHT22;29429;51.074;13.764;2022-07-04T06:28:43;20.60;99.90
43949;DHT22;29429;51.074;13.764;2022-07-04T06:31:12;20.70;99.90
43949;DHT22;29429;51.074;13.764;2022-07-04T06:33:39;20.80;99.90
43949;DHT22;29429;51.074;13.764;2022-07-04T06:36:25;20.80;99.90
43949;DHT22;29429;51.074;13.764;2022-07-04T06:38:52;20.90;99.90
43949;DHT22;29429;51.074;13.764;2022-07-04T06:41:19;21.00;99.90
43949;DHT22;29429;51.074;13.764;2022-07-04T06:43:46;21.10;99.90
43949;DHT22;29429;51.074;13.764;2022-07-04T06:46:13;21.10;99.90
43949;DHT22;29429;51.074;13.764;2022-07-04T06:48:40;21.30;99.90
43949;DHT22;29429;51.074;13.764;2022-07-04T06:51:06;21.20;99.90
43949;DHT22;29429;51.074;13.764;2022-07-04T06:53:34;21.20;99.90
43949;DHT22;29429;51.074;13.764;2022-07-04T06:56:00;21.20;99.90
43949;DHT22;29429;51.074;13.764;2022-07-04T06:58:27;21.20;99.90
43949;DHT22;29429;51.074;13.764;2022-07-04T07:00:54;21.40;99.90
43949;DHT22;29429;51.074;13.764;2022-07-04T07:03:21;21.50;99.90
43949;DHT22;29429;51.074;13.764;2022-07-04T07:05:48;21.60;99.90
43949;DHT22;29429;51.074;13.764;2022-07-04T07:08:26;21.70;99.90
43949;DHT22;29429;51.074;13.764;2022-07-04T07:10:57;21.80;99.90
43949;DHT22;29429;51.074;13.764;2022-07-04T07:13:24;21.80;99.90
43949;DHT22;29429;51.074;13.764;2022-07-04T07:15:51;21.80;99.90
43949;DHT22;29429;51.074;13.764;2022-07-04T07:18:18;21.90;99.90
43949;DHT22;29429;51.074;13.764;2022-07-04T07:20:45;22.00;99.90
43949;DHT22;29429;51.074;13.764;2022-07-04T07:23:12;22.00;99.90
43949;DHT22;29429;51.074;13.764;2022-07-04T07:25:40;22.00;99.90
43949;DHT22;29429;51.074;13.764;2022-07-04T07:28:07;22.10;99.90
43949;DHT22;29429;51.074;13.764;2022-07-04T07:30:34;22.00;99.90
43949;DHT22;29429;51.074;13.764;2022-07-04T07:33:01;22.20;99.90
43949;DHT22;29429;51.074;13.764;2022-07-04T07:35:28;22.40;99.90
43949;DHT22;29429;51.074;13.764;2022-07-04T07:37:54;22.40;99.90
43949;DHT22;29429;51.074;13.764;2022-07-04T07:40:21;22.50;99.50
43949;DHT22;29429;51.074;13.764;2022-07-04T07:42:49;22.50;99.50
43949;DHT22;29429;51.074;13.764;2022-07-04T07:45:16;22.60;98.80
43949;DHT22;29429;51.074;13.764;2022-07-04T07:47:43;22.60;98.90
43949;DHT22;29429;51.074;13.764;2022-07-04T07:50:10;22.50;99.40
43949;DHT22;29429;51.074;13.764;2022-07-04T07:52:37;22.70;98.80
43949;DHT22;29429;51.074;13.764;2022-07-04T07:55:05;22.80;98.20
43949;DHT22;29429;51.074;13.764;2022-07-04T07:57:33;22.90;98.00
43949;DHT22;29429;51.074;13.764;2022-07-04T08:00:00;22.80;97.10
43949;DHT22;29429;51.074;13.764;2022-07-04T08:02:27;22.80;97.10
43949;DHT22;29429;51.074;13.764;2022-07-04T08:05:12;22.70;97.00
43949;DHT22;29429;51.074;13.764;2022-07-04T08:07:39;22.80;96.30
43949;DHT22;29429;51.074;13.764;2022-07-04T08:10:07;22.80;95.90
43949;DHT22;29429;51.074;13.764;2022-07-04T08:12:34;22.80;96.30
43949;DHT22;29429;51.074;13.764;2022-07-04T08:15:02;22.90;96.50
43949;DHT22;29429;51.074;13.764;2022-07-04T08:17:33;23.10;95.80
43949;DHT22;29429;51.074;13.764;2022-07-04T08:20:02;23.10;95.30
43949;DHT22;29429;51.074;13.764;2022-07-04T08:22:29;23.10;95.80
43949;DHT22;29429;51.074;13.764;2022-07-04T08:24:56;23.20;95.60
43949;DHT22;29429;51.074;13.764;2022-07-04T08:27:23;23.30;95.20
43949;DHT22;29429;51.074;13.764;2022-07-04T08:29:58;23.40;95.10
43949;DHT22;29429;51.074;13.764;2022-07-04T08:32:25;23.50;95.10
43949;DHT22;29429;51.074;13.764;2022-07-04T08:34:52;23.50;94.70
43949;DHT22;29429;51.074;13.764;2022-07-04T08:37:21;23.50;95.00
43949;DHT22;29429;51.074;13.764;2022-07-04T08:39:48;23.60;95.30
43949;DHT22;29429;51.074;13.764;2022-07-04T08:42:19;23.70;94.80
43949;DHT22;29429;51.074;13.764;2022-07-04T08:44:50;23.70;94.70
43949;DHT22;29429;51.074;13.764;2022-07-04T08:47:23;23.90;94.40
43949;DHT22;29429;51.074;13.764;2022-07-04T08:50:09;23.90;94.30
43949;DHT22;29429;51.074;13.764;2022-07-04T08:52:40;24.00;94.20
43949;DHT22;29429;51.074;13.764;2022-07-04T08:55:10;24.20;93.70
43949;DHT22;29429;51.074;13.764;2022-07-04T08:57:58;24.30;93.50
43949;DHT22;29429;51.074;13.764;2022-07-04T09:00:43;24.40;92.60
43949;DHT22;29429;51.074;13.764;2022-07-04T09:03:11;24.40;92.80
43949;DHT22;29429;51.074;13.764;2022-07-04T09:05:38;24.50;93.10
43949;DHT22;29429;51.074;13.764;2022-07-04T09:08:06;24.60;92.60
43949;DHT22;29429;51.074;13.764;2022-07-04T09:10:33;24.60;91.20
43949;DHT22;29429;51.074;13.764;2022-07-04T09:13:03;24.50;90.90
43949;DHT22;29429;51.074;13.764;2022-07-04T09:15:41;24.40;91.20
43949;DHT22;29429;51.074;13.764;2022-07-04T09:18:35;24.40;90.90
43949;DHT22;29429;51.074;13.764;2022-07-04T09:21:07;24.40;90.70
43949;DHT22;29429;51.074;13.764;2022-07-04T09:23:39;24.40;90.70
43949;DHT22;29429;51.074;13.764;2022-07-04T09:26:16;24.50;90.00
43949;DHT22;29429;51.074;13.764;2022-07-04T09:28:56;24.60;90.30
43949;DHT22;29429;51.074;13.764;2022-07-04T09:31:26;24.80;89.60
43949;DHT22;29429;51.074;13.764;2022-07-04T09:36:28;24.90;86.30
43949;DHT22;29429;51.074;13.764;2022-07-04T09:39:13;24.90;87.00
43949;DHT22;29429;51.074;13.764;2022-07-04T09:42:00;25.00;86.70
43949;DHT22;29429;51.074;13.764;2022-07-04T09:44:43;25.10;87.50
43949;DHT22;29429;51.074;13.764;2022-07-04T09:47:26;25.20;86.20
43949;DHT22;29429;51.074;13.764;2022-07-04T09:50:22;25.20;84.60
43949;DHT22;29429;51.074;13.764;2022-07-04T09:52:56;25.20;84.80
43949;DHT22;29429;51.074;13.764;2022-07-04T09:55:27;25.30;85.40
43949;DHT22;29429;51.074;13.764;2022-07-04T09:57:59;25.40;85.60
43949;DHT22;29429;51.074;13.764;2022-07-04T10:00:33;25.50;83.90
43949;DHT22;29429;51.074;13.764;2022-07-04T10:06:04;25.80;81.50
43949;DHT22;29429;51.074;13.764;2022-07-04T10:08:33;25.70;81.20
43949;DHT22;29429;51.074;13.764;2022-07-04T10:11:03;26.00;81.10
43949;DHT22;29429;51.074;13.764;2022-07-04T10:13:36;26.00;78.90
43949;DHT22;29429;51.074;13.764;2022-07-04T10:16:04;26.00;80.30
43949;DHT22;29429;51.074;13.764;2022-07-04T10:18:31;26.00;80.80
43949;DHT22;29429;51.074;13.764;2022-07-04T10:20:58;26.10;79.10
43949;DHT22;29429;51.074;13.764;2022-07-04T10:23:25;26.00;78.60
43949;DHT22;29429;51.074;13.764;2022-07-04T10:25:58;25.90;78.30
43949;DHT22;29429;51.074;13.764;2022-07-04T10:28:26;26.00;77.20
43949;DHT22;29429;51.074;13.764;2022-07-04T10:30:55;26.00;76.80
43949;DHT22;29429;51.074;13.764;2022-07-04T10:33:26;26.00;75.90
43949;DHT22;29429;51.074;13.764;2022-07-04T10:38:28;26.30;77.80
43949;DHT22;29429;51.074;13.764;2022-07-04T10:41:08;26.60;73.70
43949;DHT22;29429;51.074;13.764;2022-07-04T10:43:36;26.60;74.60
43949;DHT22;29429;51.074;13.764;2022-07-04T10:51:33;26.30;72.00
43949;DHT22;29429;51.074;13.764;2022-07-04T10:54:06;26.20;73.30
43949;DHT22;29429;51.074;13.764;2022-07-04T10:56:43;26.20;73.40
43949;DHT22;29429;51.074;13.764;2022-07-04T10:59:25;26.00;71.40
43949;DHT22;29429;51.074;13.764;2022-07-04T11:18:10;25.80;72.70
43949;DHT22;29429;51.074;13.764;2022-07-04T11:20:44;25.90;73.10
43949;DHT22;29429;51.074;13.764;2022-07-04T11:23:16;26.10;73.20
43949;DHT22;29429;51.074;13.764;2022-07-04T11:25:48;26.20;71.70
43949;DHT22;29429;51.074;13.764;2022-07-04T11:28:26;26.40;71.00
43949;DHT22;29429;51.074;13.764;2022-07-04T11:31:12;26.50;68.80
43949;DHT22;29429;51.074;13.764;2022-07-04T11:33:41;26.60;69.80
43949;DHT22;29429;51.074;13.764;2022-07-04T11:36:10;26.70;69.00
43949;DHT22;29429;51.074;13.764;2022-07-04T11:41:23;26.70;68.30
43949;DHT22;29429;51.074;13.764;2022-07-04T11:44:18;26.90;69.40
43949;DHT22;29429;51.074;13.764;2022-07-04T11:49:45;27.10;66.50
43949;DHT22;29429;51.074;13.764;2022-07-04T11:52:13;27.00;65.50
43949;DHT22;29429;51.074;13.764;2022-07-04T11:54:43;26.90;65.90
43949;DHT22;29429;51.074;13.764;2022-07-04T11:57:26;26.90;65.80
43949;DHT22;29429;51.074;13.764;2022-07-04T12:00:00;26.90;66.10
43949;DHT22;29429;51.074;13.764;2022-07-04T12:02:43;27.00;66.40
43949;DHT22;29429;51.074;13.764;2022-07-04T12:05:12;27.10;65.10
43949;DHT22;29429;51.074;13.764;2022-07-04T12:07:43;27.30;64.90
43949;DHT22;29429;51.074;13.764;2022-07-04T12:10:31;27.50;64.00
43949;DHT22;29429;51.074;13.764;2022-07-04T12:13:04;27.60;64.10
43949;DHT22;29429;51.074;13.764;2022-07-04T12:15:39;27.90;64.10
43949;DHT22;29429;51.074;13.764;2022-07-04T12:20:52;28.30;62.40
43949;DHT22;29429;51.074;13.764;2022-07-04T12:23:21;28.50;60.40
43949;DHT22;29429;51.074;13.764;2022-07-04T12:25:50;28.50;60.50
43949;DHT22;29429;51.074;13.764;2022-07-04T12:28:19;28.50;60.50
43949;DHT22;29429;51.074;13.764;2022-07-04T12:30:51;28.50;59.10
43949;DHT22;29429;51.074;13.764;2022-07-04T12:33:27;28.40;60.00
43949;DHT22;29429;51.074;13.764;2022-07-04T12:48:53;28.50;60.30
43949;DHT22;29429;51.074;13.764;2022-07-04T12:53:53;28.40;60.30
43949;DHT22;29429;51.074;13.764;2022-07-04T12:56:31;28.50;59.60
43949;DHT22;29429;51.074;13.764;2022-07-04T12:59:08;28.40;58.90
43949;DHT22;29429;51.074;13.764;2022-07-04T13:01:40;28.20;59.00
43949;DHT22;29429;51.074;13.764;2022-07-04T13:04:09;28.10;59.80
43949;DHT22;29429;51.074;13.764;2022-07-04T13:06:36;27.90;59.30
43949;DHT22;29429;51.074;13.764;2022-07-04T13:09:04;27.70;59.80
43949;DHT22;29429;51.074;13.764;2022-07-04T13:11:34;27.70;59.10
43949;DHT22;29429;51.074;13.764;2022-07-04T13:14:20;27.70;59.50
43949;DHT22;29429;51.074;13.764;2022-07-04T13:16:47;27.70;59.90
43949;DHT22;29429;51.074;13.764;2022-07-04T13:19:14;27.60;59.20
43949;DHT22;29429;51.074;13.764;2022-07-04T13:21:43;27.50;58.50
43949;DHT22;29429;51.074;13.764;2022-07-04T13:24:11;27.30;59.10
43949;DHT22;29429;51.074;13.764;2022-07-04T13:26:39;27.10;59.10
43949;DHT22;29429;51.074;13.764;2022-07-04T13:29:07;27.00;59.30
43949;DHT22;29429;51.074;13.764;2022-07-04T13:31:38;26.90;59.70
43949;DHT22;29429;51.074;13.764;2022-07-04T13:34:05;27.00;59.30
43949;DHT22;29429;51.074;13.764;2022-07-04T13:36:32;27.00;59.60
43949;DHT22;29429;51.074;13.764;2022-07-04T13:38:59;27.00;59.10
43949;DHT22;29429;51.074;13.764;2022-07-04T13:41:32;27.00;59.30
43949;DHT22;29429;51.074;13.764;2022-07-04T13:44:02;27.00;59.80
43949;DHT22;29429;51.074;13.764;2022-07-04T13:46:30;27.10;59.90
43949;DHT22;29429;51.074;13.764;2022-07-04T13:49:03;27.10;59.60
43949;DHT22;29429;51.074;13.764;2022-07-04T13:51:42;27.10;60.20
43949;DHT22;29429;51.074;13.764;2022-07-04T13:54:09;27.10;59.60
43949;DHT22;29429;51.074;13.764;2022-07-04T13:56:37;27.20;59.60
43949;DHT22;29429;51.074;13.764;2022-07-04T13:59:04;27.20;58.70
43949;DHT22;29429;51.074;13.764;2022-07-04T14:01:31;27.20;57.90
43949;DHT22;29429;51.074;13.764;2022-07-04T14:03:58;27.10;58.30
43949;DHT22;29429;51.074;13.764;2022-07-04T14:06:25;27.00;57.40
43949;DHT22;29429;51.074;13.764;2022-07-04T14:08:52;27.10;57.90
43949;DHT22;29429;51.074;13.764;2022-07-04T14:11:19;27.10;58.30
43949;DHT22;29429;51.074;13.764;2022-07-04T14:13:46;27.00;56.90
43949;DHT22;29429;51.074;13.764;2022-07-04T14:16:14;26.90;57.40
43949;DHT22;29429;51.074;13.764;2022-07-04T14:18:41;26.80;57.30
43949;DHT22;29429;51.074;13.764;2022-07-04T14:21:08;27.00;58.40
43949;DHT22;29429;51.074;13.764;2022-07-04T14:23:35;27.10;57.50
43949;DHT22;29429;51.074;13.764;2022-07-04T14:26:10;27.10;57.90
43949;DHT22;29429;51.074;13.764;2022-07-04T14:28:39;27.10;57.70
43949;DHT22;29429;51.074;13.764;2022-07-04T14:31:06;27.10;57.10
43949;DHT22;29429;51.074;13.764;2022-07-04T14:33:34;27.10;57.30
43949;DHT22;29429;51.074;13.764;2022-07-04T14:36:03;27.10;56.00
43949;DHT22;29429;51.074;13.764;2022-07-04T14:38:30;27.00;55.90
43949;DHT22;29429;51.074;13.764;2022-07-04T14:40:57;27.00;55.50
43949;DHT22;29429;51.074;13.764;2022-07-04T14:43:38;27.00;55.20
43949;DHT22;29429;51.074;13.764;2022-07-04T14:46:09;26.80;54.40
43949;DHT22;29429;51.074;13.764;2022-07-04T14:48:38;26.80;54.80
43949;DHT22;29429;51.074;13.764;2022-07-04T14:51:05;26.80;55.50
43949;DHT22;29429;51.074;13.764;2022-07-04T14:53:33;26.70;56.30
43949;DHT22;29429;51.074;13.764;2022-07-04T14:56:00;26.70;56.40
43949;DHT22;29429;51.074;13.764;2022-07-04T14:58:27;26.70;55.70
43949;DHT22;29429;51.074;13.764;2022-07-04T15:00:55;26.70;55.30
43949;DHT22;29429;51.074;13.764;2022-07-04T15:03:23;26.70;55.10
43949;DHT22;29429;51.074;13.764;2022-07-04T15:05:50;26.70;54.60
43949;DHT22;29429;51.074;13.764;2022-07-04T15:08:17;26.60;54.20
43949;DHT22;29429;51.074;13.764;2022-07-04T15:10:44;26.70;54.40
43949;DHT22;29429;51.074;13.764;2022-07-04T15:13:27;26.70;54.60
43949;DHT22;29429;51.074;13.764;2022-07-04T15:15:55;26.80;54.70
43949;DHT22;29429;51.074;13.764;2022-07-04T15:18:43;26.90;54.30
43949;DHT22;29429;51.074;13.764;2022-07-04T15:21:10;26.90;52.60
43949;DHT22;29429;51.074;13.764;2022-07-04T15:23:56;27.00;52.00
43949;DHT22;29429;51.074;13.764;2022-07-04T15:26:44;27.00;51.50
43949;DHT22;29429;51.074;13.764;2022-07-04T15:29:20;26.90;52.70
43949;DHT22;29429;51.074;13.764;2022-07-04T15:31:50;26.90;52.40
43949;DHT22;29429;51.074;13.764;2022-07-04T15:34:18;26.90;52.60
43949;DHT22;29429;51.074;13.764;2022-07-04T15:36:45;26.80;52.20
43949;DHT22;29429;51.074;13.764;2022-07-04T15:39:15;26.70;52.00
43949;DHT22;29429;51.074;13.764;2022-07-04T15:41:43;26.60;52.60
43949;DHT22;29429;51.074;13.764;2022-07-04T15:44:12;26.60;51.80
43949;DHT22;29429;51.074;13.764;2022-07-04T15:46:39;26.70;51.10
43949;DHT22;29429;51.074;13.764;2022-07-04T15:49:25;26.70;51.30
43949;DHT22;29429;51.074;13.764;2022-07-04T15:51:52;26.90;51.10
43949;DHT22;29429;51.074;13.764;2022-07-04T15:54:19;27.00;51.60
43949;DHT22;29429;51.074;13.764;2022-07-04T15:56:46;27.00;51.20
43949;DHT22;29429;51.074;13.764;2022-07-04T15:59:13;26.90;50.70
43949;DHT22;29429;51.074;13.764;2022-07-04T16:01:40;26.90;50.40
43949;DHT22;29429;51.074;13.764;2022-07-04T16:04:07;26.70;50.90
43949;DHT22;29429;51.074;13.764;2022-07-04T16:06:35;26.60;50.70
43949;DHT22;29429;51.074;13.764;2022-07-04T16:09:03;26.60;51.20
43949;DHT22;29429;51.074;13.764;2022-07-04T16:11:30;26.50;51.70
43949;DHT22;29429;51.074;13.764;2022-07-04T16:13:57;26.50;52.10
43949;DHT22;29429;51.074;13.764;2022-07-04T16:16:27;26.40;51.80
43949;DHT22;29429;51.074;13.764;2022-07-04T16:18:55;26.40;52.20
43949;DHT22;29429;51.074;13.764;2022-07-04T16:21:22;26.40;52.40
43949;DHT22;29429;51.074;13.764;2022-07-04T16:23:49;26.50;52.50